Time;durP1;ratioP1;P1;durP2;ratioP2;P2;SDS_P1;SDS_P2;PMS_P1;PMS_P2;Temp;Humidity;BMP_temperature;BMP_pressure;BME280_temperature;BME280_humidity;BME280_pressure;Samples;Min_cycle;Max_cycle;Signal;HPM_P1;HPM_P2
2022/08/29 00:37:16;;;;;;;;;;;;;;;;;;;;;
2022/08/29 00:40:02;;;;;;;9.80;9.50;;;17.50;99.90;;;;;;6296529;22;20275;-86
2022/08/29 01:08:37;;;;;;;9.80;9.50;;;17.00;99.90;;;;;;6295884;22;20196;-86
2022/08/29 01:14:47;;;;;;;9.90;9.60;;;16.90;99.90;;;;;;6304598;22;20203;-85
2022/08/29 01:27:03;;;;;;;10.00;9.70;;;16.80;99.90;;;;;;6255504;22;20246;-86
2022/08/29 01:32:31;;;;;;;10.05;9.75;;;16.70;99.90;;;;;;6293385;22;20199;-86
2022/08/29 01:38:26;;;;;;;10.40;10.10;;;16.70;99.90;;;;;;6301287;22;20212;-87
2022/08/29 01:41:00;;;;;;;10.10;9.80;;;16.70;99.90;;;;;;6319663;22;20207;-86
2022/08/29 01:43:53;;;;;;;10.00;9.70;;;16.60;99.90;;;;;;6319734;22;20223;-86
2022/08/29 01:49:47;;;;;;;10.20;9.90;;;16.60;99.90;;;;;;6336641;22;20177;-86
2022/08/29 02:03:59;;;;;;;10.02;9.73;;;16.50;99.90;;;;;;6298283;22;20634;-86
2022/08/29 02:09:17;;;;;;;10.00;9.70;;;16.40;99.90;;;;;;6319861;22;20204;-86
2022/08/29 02:11:56;;;;;;;10.05;9.75;;;16.30;99.90;;;;;;6326137;22;20189;-86
2022/08/29 02:14:55;;;;;;;10.20;9.90;;;16.30;99.90;;;;;;6319474;22;20275;-85
2022/08/29 02:27:00;;;;;;;10.00;9.70;;;16.20;99.90;;;;;;6332325;22;20189;-85
2022/08/29 02:32:52;;;;;;;10.00;9.70;;;16.20;99.90;;;;;;6338606;22;20184;-83
2022/08/29 02:41:18;;;;;;;9.88;9.57;;;16.10;99.90;;;;;;6339355;22;20185;-84
2022/08/29 02:44:01;;;;;;;10.00;9.70;;;16.10;99.90;;;;;;6342603;22;20177;-85
2022/08/29 02:46:41;;;;;;;10.18;9.88;;;16.10;99.90;;;;;;6341355;22;20205;-84
2022/08/29 02:49:55;;;;;;;10.13;9.82;;;16.10;99.90;;;;;;6340701;22;20183;-84
2022/08/29 02:52:50;;;;;;;10.40;10.10;;;16.00;99.90;;;;;;6248575;22;21086;-84
2022/08/29 02:55:43;;;;;;;10.25;9.95;;;15.90;99.90;;;;;;6342005;22;20185;-84
2022/08/29 02:58:23;;;;;;;10.13;9.82;;;15.90;99.90;;;;;;6342179;22;20245;-84
2022/08/29 03:00:55;;;;;;;10.00;9.70;;;15.90;99.90;;;;;;6341408;22;20173;-85
2022/08/29 03:06:11;;;;;;;10.15;9.85;;;15.90;99.90;;;;;;6337061;22;20209;-85
2022/08/29 03:08:47;;;;;;;10.20;9.90;;;15.90;99.90;;;;;;6328472;22;20208;-86
2022/08/29 03:17:17;;;;;;;9.80;9.50;;;15.80;99.90;;;;;;6323175;22;20201;-86
2022/08/29 03:19:57;;;;;;;9.93;9.63;;;15.80;99.90;;;;;;6327235;22;20201;-86
2022/08/29 03:23:20;;;;;;;9.90;9.60;;;15.80;99.90;;;;;;6321197;22;20201;-85
2022/08/29 03:28:51;;;;;;;9.93;9.63;;;15.80;99.90;;;;;;6320612;22;20189;-86
2022/08/29 03:37:31;;;;;;;9.80;9.50;;;15.70;99.90;;;;;;6320445;22;20201;-85
2022/08/29 03:40:21;;;;;;;10.00;9.70;;;15.60;99.90;;;;;;6319965;22;20195;-85
2022/08/29 03:43:08;;;;;;;9.68;9.38;;;15.60;99.90;;;;;;6322360;22;20193;-85
2022/08/29 03:45:46;;;;;;;9.77;9.48;;;15.60;99.90;;;;;;6323412;22;20208;-85
2022/08/29 03:48:32;;;;;;;9.60;9.30;;;15.60;99.90;;;;;;6320279;22;20196;-85
2022/08/29 03:51:15;;;;;;;9.65;9.35;;;15.60;99.90;;;;;;6319727;22;20235;-85
2022/08/29 03:54:03;;;;;;;9.30;9.00;;;15.60;99.90;;;;;;6319932;22;20280;-86
2022/08/29 03:56:52;;;;;;;9.20;8.90;;;15.60;99.90;;;;;;6319224;22;20209;-85
2022/08/29 03:59:30;;;;;;;9.60;9.30;;;15.60;99.90;;;;;;6319782;22;20335;-86
2022/08/29 04:02:20;;;;;;;9.57;9.27;;;15.60;99.90;;;;;;6319492;22;20200;-86
2022/08/29 04:14:01;;;;;;;10.05;9.75;;;15.60;99.90;;;;;;6288503;22;20204;-85
2022/08/29 04:16:44;;;;;;;10.50;10.20;;;15.60;99.90;;;;;;6288102;22;20228;-85
2022/08/29 04:19:41;;;;;;;10.43;10.13;;;15.50;99.90;;;;;;6288583;22;20189;-85
2022/08/29 04:22:33;;;;;;;10.57;10.27;;;15.50;99.90;;;;;;6288693;22;20204;-86
2022/08/29 04:25:10;;;;;;;10.55;10.25;;;15.50;99.90;;;;;;6287398;22;20320;-85
2022/08/29 04:27:51;;;;;;;10.60;10.30;;;15.50;99.90;;;;;;6295559;22;20200;-85
2022/08/29 04:30:41;;;;;;;10.50;10.20;;;15.50;99.90;;;;;;6303133;22;20197;-85
2022/08/29 04:33:27;;;;;;;10.07;9.77;;;15.50;99.90;;;;;;6288772;22;20194;-85
2022/08/29 04:38:49;;;;;;;9.77;9.48;;;15.40;99.90;;;;;;6285262;22;20224;-86
2022/08/29 04:44:25;;;;;;;10.30;10.00;;;15.20;99.90;;;;;;6283613;22;20216;-85
2022/08/29 04:47:14;;;;;;;10.10;9.80;;;15.20;99.90;;;;;;6290013;22;20213;-86
2022/08/29 04:49:48;;;;;;;9.88;9.57;;;15.10;99.90;;;;;;6290178;22;20201;-85
2022/08/29 04:52:18;;;;;;;10.05;9.75;;;15.10;99.90;;;;;;6288690;22;20201;-85
2022/08/29 04:55:10;;;;;;;10.00;9.70;;;15.10;99.90;;;;;;6288537;22;20225;-85
2022/08/29 04:57:51;;;;;;;9.90;9.60;;;15.00;99.90;;;;;;6288387;22;20200;-85
2022/08/29 05:03:25;;;;;;;9.90;9.60;;;14.90;99.90;;;;;;6285966;22;20201;-86
2022/08/29 05:06:09;;;;;;;9.80;9.50;;;15.00;99.90;;;;;;6288112;22;20263;-85
2022/08/29 05:11:43;;;;;;;9.93;9.63;;;15.10;99.90;;;;;;6289351;22;20599;-85
2022/08/29 05:16:54;;;;;;;10.05;9.75;;;15.10;99.90;;;;;;6276069;22;20201;-82
2022/08/29 05:19:32;;;;;;;9.95;9.65;;;15.20;99.90;;;;;;6271426;22;20194;-82
2022/08/29 05:21:59;;;;;;;9.60;9.30;;;15.20;99.90;;;;;;6281153;22;20179;-82
2022/08/29 05:24:30;;;;;;;10.02;9.73;;;15.30;99.90;;;;;;6280775;22;20178;-82
2022/08/29 05:26:57;;;;;;;10.13;9.82;;;15.40;99.90;;;;;;6281099;22;20217;-81
2022/08/29 05:29:26;;;;;;;10.00;9.70;;;15.50;99.90;;;;;;6281049;22;20179;-82
2022/08/29 05:31:56;;;;;;;9.77;9.48;;;15.60;99.90;;;;;;6280941;22;20181;-82
2022/08/29 05:34:37;;;;;;;9.82;9.52;;;15.60;99.90;;;;;;6279154;22;20218;-82
2022/08/29 05:37:13;;;;;;;9.70;9.40;;;15.70;99.90;;;;;;6264116;22;20252;-81
2022/08/29 05:39:42;;;;;;;9.60;9.30;;;15.80;99.90;;;;;;6260523;22;20208;-81
2022/08/29 05:42:12;;;;;;;9.75;9.45;;;15.90;99.90;;;;;;6258329;22;20281;-82
2022/08/29 05:44:41;;;;;;;9.70;9.40;;;15.90;99.90;;;;;;6258164;22;20269;-82
2022/08/29 05:47:12;;;;;;;9.80;9.50;;;15.90;99.90;;;;;;6258068;22;20292;-84
2022/08/29 05:52:27;;;;;;;9.80;9.50;;;15.90;99.90;;;;;;6258380;22;20232;-81
2022/08/29 05:54:56;;;;;;;10.00;9.70;;;16.10;99.90;;;;;;6266756;22;20209;-82
2022/08/29 05:57:26;;;;;;;9.70;9.40;;;16.10;99.90;;;;;;6269701;22;20292;-81
2022/08/29 05:59:55;;;;;;;9.93;9.63;;;16.10;99.90;;;;;;6267741;22;20190;-81
2022/08/29 06:02:25;;;;;;;10.00;9.70;;;16.20;99.90;;;;;;6263353;22;20197;-81
2022/08/29 06:07:40;;;;;;;10.18;9.88;;;16.40;99.90;;;;;;6260045;22;20205;-81
2022/08/29 06:10:11;;;;;;;9.98;9.68;;;16.40;99.90;;;;;;6260795;22;20206;-82
2022/08/29 06:12:40;;;;;;;10.02;9.73;;;16.50;99.90;;;;;;6260153;22;20201;-81
2022/08/29 06:15:09;;;;;;;10.10;9.80;;;16.50;99.90;;;;;;6259445;22;20213;-80
2022/08/29 06:17:38;;;;;;;10.20;9.90;;;16.60;99.90;;;;;;6259148;22;20280;-82
2022/08/29 06:20:17;;;;;;;10.30;10.00;;;16.60;99.90;;;;;;6259597;22;20211;-82
2022/08/29 06:22:46;;;;;;;10.35;10.05;;;16.60;99.90;;;;;;6259027;22;20738;-81
2022/08/29 06:25:16;;;;;;;10.10;9.80;;;16.70;99.90;;;;;;6258638;22;20235;-81
2022/08/29 06:27:45;;;;;;;10.27;9.98;;;16.70;99.90;;;;;;6258832;22;20226;-81
2022/08/29 06:30:14;;;;;;;9.90;9.60;;;16.80;99.90;;;;;;6260303;22;20273;-82
2022/08/29 06:32:44;;;;;;;9.75;9.45;;;16.80;99.90;;;;;;6262546;22;20190;-81
2022/08/29 06:35:25;;;;;;;9.80;9.50;;;16.80;99.90;;;;;;6261528;22;20940;-81
2022/08/29 06:37:53;;;;;;;10.00;9.70;;;17.00;99.90;;;;;;6259892;22;20241;-83
2022/08/29 06:40:24;;;;;;;10.00;9.70;;;17.10;99.90;;;;;;6260207;22;20206;-82
2022/08/29 06:42:52;;;;;;;10.15;9.85;;;17.30;99.90;;;;;;6259795;22;20190;-82
2022/08/29 06:45:21;;;;;;;10.00;9.70;;;17.30;99.90;;;;;;6258795;22;20269;-82
2022/08/29 06:47:52;;;;;;;10.23;9.93;;;17.50;99.90;;;;;;6259186;22;20277;-82
2022/08/29 06:50:23;;;;;;;10.38;10.07;;;17.60;99.90;;;;;;6258978;22;20186;-82
2022/08/29 06:52:50;;;;;;;10.10;9.80;;;17.70;99.90;;;;;;6258862;22;20276;-82
2022/08/29 06:55:20;;;;;;;10.30;10.00;;;17.90;99.90;;;;;;6258702;22;20201;-83
2022/08/29 06:57:49;;;;;;;10.30;10.00;;;18.00;99.90;;;;;;6258131;22;20202;-83
2022/08/29 07:00:20;;;;;;;9.93;9.63;;;18.20;99.90;;;;;;6259086;22;20183;-82
2022/08/29 07:02:48;;;;;;;9.80;9.50;;;18.30;99.90;;;;;;6267505;22;20241;-82
2022/08/29 07:05:17;;;;;;;10.30;10.00;;;18.50;99.90;;;;;;6275013;22;20245;-82
2022/08/29 07:07:50;;;;;;;10.50;10.20;;;18.60;99.90;;;;;;6264533;22;20221;-82
2022/08/29 07:10:18;;;;;;;10.43;10.13;;;18.80;99.90;;;;;;6262448;22;20199;-83
2022/08/29 07:12:45;;;;;;;10.45;10.15;;;19.00;99.90;;;;;;6261609;22;20205;-83
2022/08/29 07:15:15;;;;;;;10.60;10.30;;;19.10;99.90;;;;;;6261307;22;20202;-82
2022/08/29 07:17:46;;;;;;;10.38;10.07;;;19.10;99.90;;;;;;6263379;22;20303;-82
2022/08/29 07:20:14;;;;;;;10.10;9.80;;;19.30;99.90;;;;;;6263913;22;20194;-82
2022/08/29 07:22:44;;;;;;;10.10;9.80;;;19.40;99.90;;;;;;6262499;22;20250;-82
2022/08/29 07:25:16;;;;;;;9.85;9.55;;;19.40;99.90;;;;;;6261566;22;20277;-83
2022/08/29 07:27:44;;;;;;;9.80;9.50;;;19.50;99.90;;;;;;6264583;22;20258;-83
2022/08/29 07:30:15;;;;;;;9.80;9.50;;;19.50;99.90;;;;;;6261716;22;20198;-82
2022/08/29 07:32:44;;;;;;;9.60;9.30;;;19.50;99.90;;;;;;6261188;22;20187;-82
2022/08/29 07:35:12;;;;;;;10.00;9.70;;;19.40;99.90;;;;;;6260409;22;20208;-81
2022/08/29 07:37:40;;;;;;;10.23;9.93;;;19.30;99.90;;;;;;6260940;22;20210;-82
2022/08/29 07:40:10;;;;;;;10.27;9.98;;;19.40;99.90;;;;;;6261932;22;20197;-83
2022/08/29 07:42:41;;;;;;;10.10;9.80;;;19.40;99.90;;;;;;6261795;22;20201;-81
2022/08/29 07:45:11;;;;;;;10.40;10.10;;;19.40;99.90;;;;;;6262108;22;20194;-82
2022/08/29 07:47:39;;;;;;;10.20;9.90;;;19.50;99.90;;;;;;6261062;22;20285;-83
2022/08/29 07:50:17;;;;;;;10.13;9.82;;;19.60;99.90;;;;;;6261371;22;20285;-82
2022/08/29 07:52:46;;;;;;;10.10;9.80;;;19.80;99.90;;;;;;6261121;22;20217;-83
2022/08/29 07:55:15;;;;;;;10.10;9.80;;;19.80;99.90;;;;;;6260859;22;20205;-83
2022/08/29 07:57:47;;;;;;;10.32;10.02;;;19.60;99.90;;;;;;6261477;22;20237;-83
2022/08/29 08:00:15;;;;;;;10.45;10.15;;;19.40;99.90;;;;;;6261338;22;20202;-82
2022/08/29 08:02:43;;;;;;;10.38;10.07;;;19.50;99.90;;;;;;6262681;22;20198;-83
2022/08/29 08:05:12;;;;;;;10.40;10.10;;;19.60;99.90;;;;;;6260121;22;20229;-82
2022/08/29 08:07:42;;;;;;;10.40;10.10;;;19.60;99.90;;;;;;6260432;22;20202;-82
2022/08/29 08:10:12;;;;;;;10.40;10.10;;;19.90;99.90;;;;;;6261035;22;20232;-83
2022/08/29 08:12:41;;;;;;;10.32;10.02;;;20.00;99.90;;;;;;6260272;22;20256;-82
2022/08/29 08:15:13;;;;;;;10.50;10.20;;;20.20;99.90;;;;;;6259008;22;20205;-82
2022/08/29 08:17:41;;;;;;;10.80;10.50;;;20.40;99.90;;;;;;6262192;22;20198;-82
2022/08/29 08:20:11;;;;;;;10.80;10.50;;;20.30;99.90;;;;;;6270696;22;20210;-83
2022/08/29 08:22:38;;;;;;;10.60;10.30;;;20.40;99.90;;;;;;6277750;22;20221;-83
2022/08/29 08:25:08;;;;;;;10.48;10.18;;;20.60;99.90;;;;;;6274616;22;20195;-83
2022/08/29 08:27:38;;;;;;;10.50;10.20;;;20.70;99.90;;;;;;6260822;22;20214;-83
2022/08/29 08:30:07;;;;;;;10.40;10.10;;;20.80;99.90;;;;;;6259986;22;20229;-82
2022/08/29 08:32:39;;;;;;;10.38;10.07;;;21.00;99.90;;;;;;6260349;22;20194;-83
2022/08/29 08:35:08;;;;;;;10.80;10.50;;;21.10;99.90;;;;;;6258764;22;20190;-83
2022/08/29 08:37:37;;;;;;;10.70;10.40;;;21.20;99.90;;;;;;6259647;22;20217;-83
2022/08/29 08:40:07;;;;;;;10.70;10.40;;;21.30;99.90;;;;;;6259613;22;20237;-82
2022/08/29 08:42:49;;;;;;;10.77;10.48;;;21.40;99.90;;;;;;6259739;22;20186;-82
2022/08/29 08:45:25;;;;;;;10.90;10.60;;;21.50;99.90;;;;;;6260405;22;20244;-82
2022/08/29 08:48:12;;;;;;;10.98;10.68;;;21.70;99.90;;;;;;6261282;22;20196;-81
2022/08/29 08:50:48;;;;;;;11.15;10.80;;;21.80;99.90;;;;;;6261981;22;20209;-82
2022/08/29 08:53:21;;;;;;;11.00;10.70;;;22.00;99.90;;;;;;6260527;22;20190;-82
2022/08/29 08:56:00;;;;;;;10.90;10.60;;;22.20;99.90;;;;;;6259975;22;20198;-82
2022/08/29 08:58:35;;;;;;;11.27;10.88;;;22.50;99.90;;;;;;6261380;22;20186;-83
2022/08/29 09:01:14;;;;;;;11.20;10.90;;;22.60;99.90;;;;;;6260805;22;20201;-82
2022/08/29 09:07:24;;;;;;;11.63;11.23;;;22.90;99.90;;;;;;6256978;22;20206;-82
2022/08/29 09:10:11;;;;;;;11.40;11.05;;;23.10;99.90;;;;;;6261403;22;20197;-82
2022/08/29 09:12:55;;;;;;;10.93;10.63;;;23.60;99.90;;;;;;6260547;22;20252;-83
2022/08/29 09:15:34;;;;;;;11.07;10.77;;;24.00;99.90;;;;;;6260231;22;20241;-82
2022/08/29 09:18:06;;;;;;;11.50;11.10;;;24.30;99.90;;;;;;6261257;22;20214;-83
2022/08/29 09:20:42;;;;;;;11.20;10.90;;;24.40;99.90;;;;;;6262316;22;20199;-83
2022/08/29 09:23:20;;;;;;;10.93;10.63;;;24.50;99.90;;;;;;6260801;22;20202;-82
2022/08/29 09:25:49;;;;;;;11.32;11.02;;;24.90;99.90;;;;;;6262757;22;20198;-83
2022/08/29 09:28:18;;;;;;;11.27;10.98;;;24.70;99.90;;;;;;6278794;22;20213;-83
2022/08/29 09:31:24;;;;;;;10.70;10.40;;;24.90;99.90;;;;;;6280074;22;20194;-83
2022/08/29 09:33:55;;;;;;;10.57;10.27;;;24.90;99.90;;;;;;6274974;22;20210;-83
2022/08/29 09:36:50;;;;;;;10.70;10.40;;;25.10;99.90;;;;;;6267157;22;20237;-82
2022/08/29 09:39:27;;;;;;;10.80;10.50;;;25.10;99.90;;;;;;6270618;22;20195;-82
2022/08/29 09:41:59;;;;;;;10.70;10.40;;;25.30;99.90;;;;;;6270199;22;20253;-83
2022/08/29 09:44:29;;;;;;;11.50;11.15;;;25.30;99.90;;;;;;6266788;22;20189;-83
2022/08/29 09:47:13;;;;;;;11.32;11.02;;;25.70;99.90;;;;;;6262375;22;20198;-82
2022/08/29 09:50:00;;;;;;;11.30;11.00;;;26.10;99.90;;;;;;6261996;22;20218;-83
2022/08/29 09:52:39;;;;;;;11.48;11.18;;;26.10;99.90;;;;;;6262177;22;20190;-83
2022/08/29 09:55:27;;;;;;;11.38;11.07;;;26.00;99.90;;;;;;6260182;22;20198;-83
2022/08/29 09:58:04;;;;;;;11.50;11.20;;;26.10;99.90;;;;;;6261473;22;20186;-82
2022/08/29 10:00:36;;;;;;;11.40;11.02;;;26.40;99.90;;;;;;6261966;22;20194;-82
2022/08/29 10:03:13;;;;;;;11.30;11.00;;;26.80;99.90;;;;;;6274817;22;20189;-82
2022/08/29 10:05:50;;;;;;;11.50;11.20;;;26.90;99.90;;;;;;6280544;22;20178;-82
2022/08/29 10:08:36;;;;;;;11.52;11.23;;;27.00;99.90;;;;;;6281043;22;20186;-82
2022/08/29 10:11:10;;;;;;;11.38;11.07;;;27.50;99.90;;;;;;6280773;22;20171;-83
2022/08/29 10:13:54;;;;;;;11.10;10.80;;;27.70;99.90;;;;;;6281026;22;20234;-82
2022/08/29 10:16:39;;;;;;;11.73;11.32;;;27.80;99.90;;;;;;6278634;22;20201;-82
2022/08/29 10:19:18;;;;;;;11.75;11.35;;;27.80;99.90;;;;;;6262154;22;20286;-82
2022/08/29 10:22:05;;;;;;;11.70;11.30;;;28.00;99.90;;;;;;6263224;22;20182;-82
2022/08/29 10:24:54;;;;;;;11.40;11.05;;;27.60;99.90;;;;;;6263393;22;20194;-82
2022/08/29 10:27:32;;;;;;;11.27;10.98;;;27.20;99.90;;;;;;6263693;22;20197;-82
2022/08/29 10:30:10;;;;;;;11.70;11.30;;;27.50;99.90;;;;;;6261765;22;20197;-82
2022/08/29 10:33:15;;;;;;;11.65;11.25;;;27.70;99.90;;;;;;6260263;22;20194;-82
2022/08/29 10:35:53;;;;;;;11.70;11.30;;;28.00;99.90;;;;;;6258551;22;20209;-82
2022/08/29 10:38:50;;;;;;;11.88;11.48;;;28.30;99.90;;;;;;6259051;22;20245;-82
2022/08/29 10:41:54;;;;;;;11.90;11.50;;;28.50;99.90;;;;;;6260617;22;20264;-83
2022/08/29 10:44:34;;;;;;;11.95;11.55;;;28.90;99.90;;;;;;6261085;22;20690;-82
2022/08/29 10:47:29;;;;;;;11.77;11.38;;;29.20;99.90;;;;;;6260814;22;20230;-82
2022/08/29 10:50:15;;;;;;;11.85;11.45;;;28.40;99.90;;;;;;6260289;22;20192;-82
2022/08/29 10:52:56;;;;;;;11.93;11.52;;;28.60;99.90;;;;;;6261423;22;20190;-81
2022/08/29 10:55:40;;;;;;;11.55;11.25;;;28.60;99.90;;;;;;6260564;22;20202;-82
2022/08/29 10:58:38;;;;;;;11.60;11.23;;;28.80;99.90;;;;;;6260720;22;20203;-83
2022/08/29 11:01:14;;;;;;;11.55;11.20;;;28.90;99.90;;;;;;6260466;22;20183;-82
2022/08/29 11:03:51;;;;;;;11.80;11.40;;;29.30;99.90;;;;;;6260730;22;20194;-82
2022/08/29 11:06:23;;;;;;;11.50;11.15;;;29.10;99.90;;;;;;6259361;22;20253;-83
2022/08/29 11:09:08;;;;;;;11.40;11.10;;;29.30;99.90;;;;;;6259863;22;20194;-83
2022/08/29 11:11:50;;;;;;;12.00;11.60;;;29.50;99.90;;;;;;6261683;22;20274;-82
2022/08/29 11:14:25;;;;;;;11.80;11.40;;;29.50;99.90;;;;;;6260454;22;20186;-82
2022/08/29 11:16:55;;;;;;;11.80;11.40;;;29.10;99.90;;;;;;6259886;22;20261;-81
2022/08/29 11:19:27;;;;;;;11.45;11.15;;;28.90;99.90;;;;;;6259819;22;20222;-81
2022/08/29 11:22:01;;;;;;;11.25;10.95;;;28.80;99.90;;;;;;6259467;22;20183;-81
2022/08/29 11:24:34;;;;;;;11.20;10.90;;;29.10;99.90;;;;;;6259219;22;20221;-80
2022/08/29 11:27:11;;;;;;;11.35;11.05;;;29.50;99.90;;;;;;6259674;22;20225;-81
2022/08/29 11:29:49;;;;;;;10.98;10.68;;;30.00;99.90;;;;;;6260076;22;20198;-82
2022/08/29 11:32:25;;;;;;;11.13;10.82;;;30.50;99.90;;;;;;6260750;22;20226;-81
2022/08/29 11:35:07;;;;;;;11.25;10.95;;;30.90;99.90;;;;;;6259517;22;20190;-81
2022/08/29 11:38:17;;;;;;;11.68;11.27;;;31.20;99.90;;;;;;6260549;22;20213;-81
2022/08/29 11:41:22;;;;;;;11.90;11.50;;;31.00;99.90;;;;;;6260335;22;20212;-82
2022/08/29 11:43:57;;;;;;;11.63;11.32;;;30.90;99.90;;;;;;6201600;22;20198;-79
2022/08/29 11:46:41;;;;;;;11.75;11.38;;;31.00;99.90;;;;;;6278040;22;20209;-80
2022/08/29 11:49:38;;;;;;;11.52;11.23;;;31.20;99.90;;;;;;6271510;22;20218;-82
2022/08/29 11:52:27;;;;;;;11.40;11.10;;;31.10;99.90;;;;;;6196896;22;20221;-82
2022/08/29 11:55:36;;;;;;;11.93;11.52;;;30.70;99.90;;;;;;6253357;22;20207;-79
2022/08/29 11:58:44;;;;;;;11.75;11.35;;;30.50;99.90;;;;;;6260790;22;20221;-80
2022/08/29 12:01:38;;;;;;;12.00;11.60;;;30.70;99.90;;;;;;6260812;22;20200;-79
2022/08/29 12:04:10;;;;;;;12.07;11.68;;;30.70;99.90;;;;;;6259947;22;20206;-80
2022/08/29 12:06:59;;;;;;;11.90;11.50;;;30.80;99.90;;;;;;6259683;22;20201;-80
2022/08/29 12:09:51;;;;;;;12.02;11.63;;;30.90;99.90;;;;;;6260553;22;20679;-80
2022/08/29 12:12:46;;;;;;;12.25;11.85;;;30.40;99.90;;;;;;6260929;22;20217;-79
2022/08/29 12:15:52;;;;;;;11.73;11.32;;;30.30;99.90;;;;;;6269117;22;20190;-80
2022/08/29 12:18:49;;;;;;;11.90;11.50;;;30.60;99.90;;;;;;6236694;22;20198;-80
2022/08/29 12:21:47;;;;;;;11.93;11.52;;;31.00;99.90;;;;;;6273660;22;20228;-78
2022/08/29 12:24:45;;;;;;;11.85;11.45;;;31.30;99.90;;;;;;6275087;22;20186;-79
2022/08/29 12:27:25;;;;;;;12.10;11.70;;;31.20;99.90;;;;;;6270433;22;20282;-79
2022/08/29 12:29:54;;;;;;;12.10;11.70;;;31.40;99.90;;;;;;6271239;22;20189;-80
2022/08/29 12:32:47;;;;;;;12.00;11.60;;;31.40;99.90;;;;;;6272163;22;20198;-80
2022/08/29 12:36:06;;;;;;;11.80;11.40;;;30.80;99.90;;;;;;6272464;22;20194;-79
2022/08/29 12:38:50;;;;;;;11.75;11.35;;;30.30;99.90;;;;;;6206430;22;20229;-80
2022/08/29 12:41:54;;;;;;;11.90;11.50;;;30.00;99.90;;;;;;6274384;22;20254;-79
2022/08/29 12:44:28;;;;;;;11.88;11.48;;;30.10;99.90;;;;;;6273146;22;20241;-78
2022/08/29 12:47:03;;;;;;;12.05;11.65;;;30.30;99.90;;;;;;6264939;22;20198;-80
2022/08/29 12:49:41;;;;;;;11.85;11.45;;;30.20;99.90;;;;;;6258998;22;20213;-81
2022/08/29 12:52:23;;;;;;;12.20;11.80;;;30.60;99.90;;;;;;6258498;22;20253;-80
2022/08/29 12:54:55;;;;;;;12.07;11.68;;;31.20;99.90;;;;;;6257574;22;20277;-80
2022/08/29 12:57:28;;;;;;;11.80;11.40;;;31.30;99.90;;;;;;6257998;22;20285;-80
2022/08/29 12:59:57;;;;;;;12.18;11.77;;;31.60;99.90;;;;;;6258437;22;20206;-80
2022/08/29 13:02:28;;;;;;;11.90;11.50;;;32.00;99.90;;;;;;6258489;22;20186;-80
2022/08/29 13:04:56;;;;;;;11.50;11.20;;;32.20;99.90;;;;;;6258588;22;20190;-80
2022/08/29 13:07:26;;;;;;;11.63;11.23;;;31.80;99.90;;;;;;6258706;22;20201;-80
2022/08/29 13:09:58;;;;;;;11.55;11.25;;;32.20;99.90;;;;;;6258515;22;20241;-80
2022/08/29 13:12:30;;;;;;;11.13;10.82;;;32.60;99.90;;;;;;6258038;22;20241;-80
2022/08/29 13:15:01;;;;;;;11.35;11.05;;;32.70;99.90;;;;;;6257812;22;20194;-80
2022/08/29 13:17:32;;;;;;;12.00;11.60;;;32.60;99.90;;;;;;6257576;22;20206;-80
2022/08/29 13:20:47;;;;;;;11.85;11.48;;;32.30;99.90;;;;;;6261457;22;20246;-79
2022/08/29 13:23:23;;;;;;;11.48;11.18;;;32.40;99.90;;;;;;6265383;22;20234;-80
2022/08/29 13:26:00;;;;;;;11.35;11.05;;;32.10;99.90;;;;;;6262361;22;20202;-80
2022/08/29 13:28:37;;;;;;;11.30;11.00;;;32.50;99.90;;;;;;6258749;22;20232;-80
2022/08/29 13:31:26;;;;;;;11.40;11.10;;;32.70;99.90;;;;;;6259942;22;20217;-79
2022/08/29 13:34:29;;;;;;;11.32;11.02;;;33.00;99.90;;;;;;6262320;22;20229;-79
2022/08/29 13:37:06;;;;;;;11.18;10.88;;;33.40;99.90;;;;;;6261939;22;20229;-80
2022/08/29 13:39:46;;;;;;;11.50;11.20;;;33.30;99.90;;;;;;6265402;22;20204;-80
2022/08/29 13:42:23;;;;;;;12.00;11.60;;;32.90;99.90;;;;;;6260384;22;20197;-80
2022/08/29 13:45:10;;;;;;;11.90;11.50;;;32.90;99.90;;;;;;6258739;22;20201;-79
2022/08/29 13:47:57;;;;;;;11.60;11.30;;;33.20;99.90;;;;;;6260352;22;20190;-80
2022/08/29 13:50:29;;;;;;;11.80;11.40;;;32.90;99.90;;;;;;6260107;22;20217;-80
2022/08/29 13:52:58;;;;;;;10.90;10.60;;;32.80;99.90;;;;;;6261415;22;20277;-80
2022/08/29 13:55:25;;;;;;;10.77;10.48;;;33.00;99.90;;;;;;6262001;22;20202;-80
2022/08/29 13:57:56;;;;;;;11.00;10.70;;;32.80;99.90;;;;;;6261743;22;20220;-80
2022/08/29 14:00:26;;;;;;;10.80;10.50;;;32.50;99.90;;;;;;6260225;22;20209;-81
2022/08/29 14:02:54;;;;;;;10.90;10.60;;;32.40;99.90;;;;;;6259221;22;20273;-80
2022/08/29 14:05:22;;;;;;;11.10;10.80;;;32.40;99.90;;;;;;6258769;22;20241;-80
2022/08/29 14:07:49;;;;;;;11.73;11.32;;;32.60;99.90;;;;;;6260778;22;20237;-81
2022/08/29 14:10:17;;;;;;;11.93;11.52;;;32.10;99.90;;;;;;6259081;22;20249;-80
2022/08/29 14:12:46;;;;;;;11.30;11.00;;;31.80;99.90;;;;;;6260230;22;20202;-80
2022/08/29 14:15:17;;;;;;;11.38;11.07;;;31.80;99.90;;;;;;6259081;22;20198;-80
2022/08/29 14:17:47;;;;;;;11.43;11.13;;;32.20;99.90;;;;;;6259614;22;20198;-79
2022/08/29 14:20:16;;;;;;;11.57;11.20;;;32.60;99.90;;;;;;6258705;22;20194;-80
2022/08/29 14:22:44;;;;;;;11.80;11.40;;;32.90;99.90;;;;;;6259345;22;20218;-80
2022/08/29 14:25:13;;;;;;;11.40;11.10;;;33.00;99.90;;;;;;6258096;22;20289;-80
2022/08/29 14:27:46;;;;;;;11.40;11.10;;;32.90;99.90;;;;;;6262546;22;20237;-80
2022/08/29 14:30:18;;;;;;;11.05;10.75;;;33.10;99.90;;;;;;6266847;22;20194;-79
2022/08/29 14:32:48;;;;;;;11.10;10.80;;;33.30;99.90;;;;;;6279085;22;20179;-78
2022/08/29 14:35:16;;;;;;;11.45;11.15;;;33.00;99.90;;;;;;6280015;22;20186;-80
2022/08/29 14:37:43;;;;;;;11.50;11.10;;;33.30;99.90;;;;;;6278178;22;20251;-78
2022/08/29 14:40:11;;;;;;;11.23;10.93;;;33.30;99.90;;;;;;6280742;22;20170;-78
2022/08/29 14:42:40;;;;;;;11.70;11.30;;;33.30;99.90;;;;;;6280618;22;20258;-78
2022/08/29 14:45:09;;;;;;;11.30;11.00;;;33.40;99.90;;;;;;6267914;22;20214;-79
2022/08/29 14:47:39;;;;;;;11.77;11.38;;;33.40;99.90;;;;;;6263193;22;20202;-79
2022/08/29 14:50:10;;;;;;;11.40;11.10;;;33.30;99.90;;;;;;6261050;22;20225;-79
2022/08/29 14:52:38;;;;;;;11.68;11.27;;;33.40;99.90;;;;;;6259823;22;20197;-79
2022/08/29 14:55:07;;;;;;;11.60;11.20;;;33.50;99.90;;;;;;6258043;22;20225;-79
2022/08/29 14:57:35;;;;;;;11.48;11.18;;;33.70;99.90;;;;;;6259096;22;20273;-80
2022/08/29 15:00:04;;;;;;;11.30;11.00;;;33.80;99.90;;;;;;6258576;22;20202;-80
2022/08/29 15:02:32;;;;;;;11.60;11.30;;;33.40;99.90;;;;;;6258243;22;20214;-79
2022/08/29 15:05:01;;;;;;;11.40;11.10;;;33.50;99.90;;;;;;6258129;22;20206;-79
2022/08/29 15:07:29;;;;;;;12.00;11.60;;;33.70;99.90;;;;;;6259646;22;20225;-80
2022/08/29 15:09:57;;;;;;;11.70;11.30;;;33.90;99.90;;;;;;6258790;22;20285;-80
2022/08/29 15:12:26;;;;;;;11.95;11.55;;;33.60;99.90;;;;;;6259224;22;20194;-79
2022/08/29 15:14:54;;;;;;;11.88;11.48;;;33.90;99.90;;;;;;6258795;22;20198;-79
2022/08/29 15:17:23;;;;;;;11.90;11.50;;;34.20;99.90;;;;;;6259185;22;20262;-80
2022/08/29 15:19:51;;;;;;;11.88;11.48;;;34.30;99.90;;;;;;6259125;22;20202;-80
2022/08/29 15:22:21;;;;;;;11.70;11.30;;;34.50;99.90;;;;;;6258271;22;20672;-80
2022/08/29 15:24:50;;;;;;;11.68;11.27;;;34.60;99.90;;;;;;6263516;22;20198;-79
2022/08/29 15:27:18;;;;;;;11.30;11.00;;;34.60;99.90;;;;;;6261521;22;20221;-79
2022/08/29 15:29:45;;;;;;;11.48;11.18;;;34.60;99.90;;;;;;6275619;22;20182;-77
2022/08/29 15:32:14;;;;;;;11.65;11.25;;;34.70;99.90;;;;;;6273888;22;20272;-79
2022/08/29 15:34:43;;;;;;;11.30;11.00;;;34.10;99.90;;;;;;6261759;22;20272;-80
2022/08/29 15:37:12;;;;;;;11.50;11.20;;;33.40;99.90;;;;;;6259730;22;20237;-79
2022/08/29 15:39:41;;;;;;;11.40;11.10;;;33.50;99.90;;;;;;6259149;22;20226;-80
2022/08/29 15:42:12;;;;;;;11.68;11.27;;;33.90;99.90;;;;;;6259158;22;20257;-79
2022/08/29 15:44:40;;;;;;;11.80;11.40;;;34.20;99.90;;;;;;6258069;22;20198;-79
2022/08/29 15:47:08;;;;;;;11.90;11.50;;;34.10;99.90;;;;;;6258840;22;20210;-80
2022/08/29 15:49:36;;;;;;;11.68;11.27;;;34.00;99.90;;;;;;6259802;22;20202;-79
2022/08/29 15:52:04;;;;;;;11.77;11.38;;;34.00;99.90;;;;;;6260017;22;20676;-79
2022/08/29 15:54:32;;;;;;;11.80;11.40;;;33.90;99.90;;;;;;6259698;22;20199;-79
2022/08/29 15:57:00;;;;;;;11.75;11.35;;;34.10;99.90;;;;;;6261644;22;20199;-79
2022/08/29 15:59:28;;;;;;;11.35;11.05;;;34.40;99.90;;;;;;6260317;22;20202;-79
2022/08/29 16:01:56;;;;;;;11.57;11.27;;;34.50;99.90;;;;;;6260477;22;20213;-79
2022/08/29 16:04:25;;;;;;;11.77;11.38;;;34.50;99.90;;;;;;6258415;22;20252;-79
2022/08/29 16:06:53;;;;;;;11.68;11.32;;;34.20;99.90;;;;;;6258679;22;20225;-79
2022/08/29 16:09:22;;;;;;;11.65;11.27;;;34.20;99.90;;;;;;6258475;22;20225;-79